sensor_id;sensor_type;location;lat;lon;timestamp;P1;durP1;ratioP1;P2;durP2;ratioP2
53879;SDS011;39791;53.184;5.486;2023-02-04T00:01:34;60.33;;;10.45;;
53879;SDS011;39791;53.184;5.486;2023-02-04T00:04:00;66.32;;;11.20;;
53879;SDS011;39791;53.184;5.486;2023-02-04T00:06:26;65.38;;;11.18;;
53879;SDS011;39791;53.184;5.486;2023-02-04T00:08:51;76.38;;;11.80;;
53879;SDS011;39791;53.184;5.486;2023-02-04T00:11:17;74.88;;;11.93;;
53879;SDS011;39791;53.184;5.486;2023-02-04T00:13:43;71.72;;;10.88;;
53879;SDS011;39791;53.184;5.486;2023-02-04T00:16:08;73.38;;;11.90;;
53879;SDS011;39791;53.184;5.486;2023-02-04T00:18:34;70.63;;;11.80;;
53879;SDS011;39791;53.184;5.486;2023-02-04T00:20:59;61.88;;;10.23;;
53879;SDS011;39791;53.184;5.486;2023-02-04T00:23:25;65.90;;;11.20;;
53879;SDS011;39791;53.184;5.486;2023-02-04T00:25:50;52.28;;;9.80;;
53879;SDS011;39791;53.184;5.486;2023-02-04T00:28:16;73.03;;;11.38;;
53879;SDS011;39791;53.184;5.486;2023-02-04T00:30:42;70.72;;;10.82;;
53879;SDS011;39791;53.184;5.486;2023-02-04T00:33:07;75.97;;;11.05;;
53879;SDS011;39791;53.184;5.486;2023-02-04T00:35:33;71.53;;;12.02;;
53879;SDS011;39791;53.184;5.486;2023-02-04T00:38:01;63.70;;;10.68;;
53879;SDS011;39791;53.184;5.486;2023-02-04T00:40:27;63.90;;;10.27;;
53879;SDS011;39791;53.184;5.486;2023-02-04T00:42:52;66.43;;;12.15;;
53879;SDS011;39791;53.184;5.486;2023-02-04T00:45:18;88.25;;;12.25;;
53879;SDS011;39791;53.184;5.486;2023-02-04T00:47:43;79.05;;;12.15;;
53879;SDS011;39791;53.184;5.486;2023-02-04T00:50:09;70.45;;;10.63;;
53879;SDS011;39791;53.184;5.486;2023-02-04T00:52:34;75.82;;;12.18;;
53879;SDS011;39791;53.184;5.486;2023-02-04T00:55:00;68.90;;;11.82;;
53879;SDS011;39791;53.184;5.486;2023-02-04T00:57:26;87.97;;;12.05;;
53879;SDS011;39791;53.184;5.486;2023-02-04T00:59:52;76.45;;;11.57;;
53879;SDS011;39791;53.184;5.486;2023-02-04T01:02:17;89.15;;;13.35;;
53879;SDS011;39791;53.184;5.486;2023-02-04T01:04:43;75.78;;;11.77;;
53879;SDS011;39791;53.184;5.486;2023-02-04T01:07:08;72.00;;;11.48;;
53879;SDS011;39791;53.184;5.486;2023-02-04T01:09:34;76.38;;;12.20;;
53879;SDS011;39791;53.184;5.486;2023-02-04T01:11:59;63.50;;;11.60;;
53879;SDS011;39791;53.184;5.486;2023-02-04T01:14:25;79.90;;;11.55;;
53879;SDS011;39791;53.184;5.486;2023-02-04T01:16:51;84.53;;;12.30;;
53879;SDS011;39791;53.184;5.486;2023-02-04T01:19:16;68.07;;;11.02;;
53879;SDS011;39791;53.184;5.486;2023-02-04T01:21:42;68.25;;;10.95;;
53879;SDS011;39791;53.184;5.486;2023-02-04T01:24:07;64.00;;;11.02;;
53879;SDS011;39791;53.184;5.486;2023-02-04T01:26:33;67.57;;;9.68;;
53879;SDS011;39791;53.184;5.486;2023-02-04T01:28:58;61.63;;;9.82;;
53879;SDS011;39791;53.184;5.486;2023-02-04T01:31:24;60.88;;;10.20;;
53879;SDS011;39791;53.184;5.486;2023-02-04T01:33:50;68.45;;;10.80;;
53879;SDS011;39791;53.184;5.486;2023-02-04T01:36:16;75.30;;;11.18;;
53879;SDS011;39791;53.184;5.486;2023-02-04T01:38:45;69.57;;;10.65;;
53879;SDS011;39791;53.184;5.486;2023-02-04T01:41:12;68.60;;;10.82;;
53879;SDS011;39791;53.184;5.486;2023-02-04T01:43:38;68.60;;;10.18;;
53879;SDS011;39791;53.184;5.486;2023-02-04T01:46:03;65.45;;;10.35;;
53879;SDS011;39791;53.184;5.486;2023-02-04T01:48:29;60.42;;;10.88;;
53879;SDS011;39791;53.184;5.486;2023-02-04T01:51:05;60.97;;;9.48;;
53879;SDS011;39791;53.184;5.486;2023-02-04T01:53:33;66.60;;;11.27;;
53879;SDS011;39791;53.184;5.486;2023-02-04T01:56:00;64.30;;;9.45;;
53879;SDS011;39791;53.184;5.486;2023-02-04T01:58:33;66.50;;;10.98;;
53879;SDS011;39791;53.184;5.486;2023-02-04T02:00:58;58.22;;;10.15;;
53879;SDS011;39791;53.184;5.486;2023-02-04T02:03:24;55.47;;;10.00;;
53879;SDS011;39791;53.184;5.486;2023-02-04T02:05:50;67.00;;;10.70;;
53879;SDS011;39791;53.184;5.486;2023-02-04T02:08:17;77.43;;;9.82;;
53879;SDS011;39791;53.184;5.486;2023-02-04T02:10:44;51.42;;;9.95;;
53879;SDS011;39791;53.184;5.486;2023-02-04T02:13:12;72.25;;;10.68;;
53879;SDS011;39791;53.184;5.486;2023-02-04T02:15:42;56.88;;;9.73;;
53879;SDS011;39791;53.184;5.486;2023-02-04T02:18:08;60.05;;;10.00;;
53879;SDS011;39791;53.184;5.486;2023-02-04T02:20:35;69.82;;;11.05;;
53879;SDS011;39791;53.184;5.486;2023-02-04T02:23:05;79.10;;;12.10;;
53879;SDS011;39791;53.184;5.486;2023-02-04T02:25:43;70.28;;;11.30;;
53879;SDS011;39791;53.184;5.486;2023-02-04T02:28:10;66.57;;;10.95;;
53879;SDS011;39791;53.184;5.486;2023-02-04T02:30:38;69.13;;;11.52;;
53879;SDS011;39791;53.184;5.486;2023-02-04T02:33:05;65.75;;;11.15;;
53879;SDS011;39791;53.184;5.486;2023-02-04T02:35:32;64.40;;;10.85;;
53879;SDS011;39791;53.184;5.486;2023-02-04T02:37:58;75.18;;;11.20;;
53879;SDS011;39791;53.184;5.486;2023-02-04T02:40:23;78.97;;;12.48;;
53879;SDS011;39791;53.184;5.486;2023-02-04T02:42:50;70.68;;;10.32;;
53879;SDS011;39791;53.184;5.486;2023-02-04T02:45:27;66.82;;;12.35;;
53879;SDS011;39791;53.184;5.486;2023-02-04T02:47:56;67.72;;;11.07;;
53879;SDS011;39791;53.184;5.486;2023-02-04T02:50:24;57.45;;;11.45;;
53879;SDS011;39791;53.184;5.486;2023-02-04T02:52:52;73.20;;;11.93;;
53879;SDS011;39791;53.184;5.486;2023-02-04T02:55:19;77.47;;;10.80;;
53879;SDS011;39791;53.184;5.486;2023-02-04T02:57:48;74.18;;;11.82;;
53879;SDS011;39791;53.184;5.486;2023-02-04T03:00:19;82.97;;;12.23;;
53879;SDS011;39791;53.184;5.486;2023-02-04T03:02:53;64.18;;;11.88;;
53879;SDS011;39791;53.184;5.486;2023-02-04T03:05:42;89.32;;;10.93;;
53879;SDS011;39791;53.184;5.486;2023-02-04T03:08:10;87.03;;;11.63;;
53879;SDS011;39791;53.184;5.486;2023-02-04T03:10:38;83.05;;;11.68;;
53879;SDS011;39791;53.184;5.486;2023-02-04T03:13:05;83.35;;;13.05;;
53879;SDS011;39791;53.184;5.486;2023-02-04T03:15:31;75.25;;;10.65;;
53879;SDS011;39791;53.184;5.486;2023-02-04T03:17:57;77.22;;;11.38;;
53879;SDS011;39791;53.184;5.486;2023-02-04T03:20:24;71.07;;;10.48;;
53879;SDS011;39791;53.184;5.486;2023-02-04T03:22:52;79.45;;;10.75;;
53879;SDS011;39791;53.184;5.486;2023-02-04T03:25:19;56.88;;;10.27;;
53879;SDS011;39791;53.184;5.486;2023-02-04T03:27:48;58.40;;;9.68;;
53879;SDS011;39791;53.184;5.486;2023-02-04T03:30:14;72.78;;;10.10;;
53879;SDS011;39791;53.184;5.486;2023-02-04T03:32:40;62.10;;;11.02;;
53879;SDS011;39791;53.184;5.486;2023-02-04T03:35:06;67.88;;;10.35;;
53879;SDS011;39791;53.184;5.486;2023-02-04T03:37:32;62.00;;;11.40;;
53879;SDS011;39791;53.184;5.486;2023-02-04T03:39:57;61.25;;;10.98;;
53879;SDS011;39791;53.184;5.486;2023-02-04T03:42:23;71.43;;;10.88;;
53879;SDS011;39791;53.184;5.486;2023-02-04T03:44:49;75.43;;;10.63;;
53879;SDS011;39791;53.184;5.486;2023-02-04T03:47:15;70.60;;;10.35;;
53879;SDS011;39791;53.184;5.486;2023-02-04T03:49:40;65.97;;;10.85;;
53879;SDS011;39791;53.184;5.486;2023-02-04T03:52:06;70.40;;;10.95;;
53879;SDS011;39791;53.184;5.486;2023-02-04T03:54:31;73.18;;;10.85;;
53879;SDS011;39791;53.184;5.486;2023-02-04T03:56:57;84.80;;;11.15;;
53879;SDS011;39791;53.184;5.486;2023-02-04T03:59:22;63.83;;;11.20;;
53879;SDS011;39791;53.184;5.486;2023-02-04T04:01:48;76.22;;;11.20;;
53879;SDS011;39791;53.184;5.486;2023-02-04T04:04:13;70.57;;;10.20;;
53879;SDS011;39791;53.184;5.486;2023-02-04T04:06:39;72.85;;;11.45;;
53879;SDS011;39791;53.184;5.486;2023-02-04T04:09:05;70.43;;;10.73;;
53879;SDS011;39791;53.184;5.486;2023-02-04T04:11:30;76.07;;;10.80;;
53879;SDS011;39791;53.184;5.486;2023-02-04T04:13:56;70.95;;;10.43;;
53879;SDS011;39791;53.184;5.486;2023-02-04T04:16:21;78.07;;;11.13;;
53879;SDS011;39791;53.184;5.486;2023-02-04T04:18:47;88.78;;;12.50;;
53879;SDS011;39791;53.184;5.486;2023-02-04T04:21:12;82.97;;;11.55;;
53879;SDS011;39791;53.184;5.486;2023-02-04T04:23:38;78.28;;;11.40;;
53879;SDS011;39791;53.184;5.486;2023-02-04T04:26:04;85.97;;;12.38;;
53879;SDS011;39791;53.184;5.486;2023-02-04T04:28:29;74.25;;;12.35;;
53879;SDS011;39791;53.184;5.486;2023-02-04T04:30:55;88.10;;;12.30;;
53879;SDS011;39791;53.184;5.486;2023-02-04T04:33:20;77.90;;;11.88;;
53879;SDS011;39791;53.184;5.486;2023-02-04T04:35:46;90.13;;;11.98;;
53879;SDS011;39791;53.184;5.486;2023-02-04T04:38:11;71.07;;;11.27;;
53879;SDS011;39791;53.184;5.486;2023-02-04T04:40:37;67.82;;;10.30;;
53879;SDS011;39791;53.184;5.486;2023-02-04T04:43:03;70.95;;;10.80;;
53879;SDS011;39791;53.184;5.486;2023-02-04T04:45:28;77.00;;;10.95;;
53879;SDS011;39791;53.184;5.486;2023-02-04T04:47:54;80.07;;;11.32;;
53879;SDS011;39791;53.184;5.486;2023-02-04T04:50:19;70.30;;;10.40;;
53879;SDS011;39791;53.184;5.486;2023-02-04T04:52:45;78.28;;;11.05;;
53879;SDS011;39791;53.184;5.486;2023-02-04T04:55:11;72.68;;;10.20;;
53879;SDS011;39791;53.184;5.486;2023-02-04T04:57:36;76.03;;;11.55;;
53879;SDS011;39791;53.184;5.486;2023-02-04T05:00:03;75.13;;;10.38;;
53879;SDS011;39791;53.184;5.486;2023-02-04T05:02:29;62.55;;;11.13;;
53879;SDS011;39791;53.184;5.486;2023-02-04T05:04:55;73.22;;;10.13;;
53879;SDS011;39791;53.184;5.486;2023-02-04T05:07:21;77.47;;;11.35;;
53879;SDS011;39791;53.184;5.486;2023-02-04T05:09:46;68.93;;;10.32;;
53879;SDS011;39791;53.184;5.486;2023-02-04T05:12:12;78.22;;;10.85;;
53879;SDS011;39791;53.184;5.486;2023-02-04T05:14:37;61.85;;;9.50;;
53879;SDS011;39791;53.184;5.486;2023-02-04T05:17:03;68.35;;;9.85;;
53879;SDS011;39791;53.184;5.486;2023-02-04T05:19:28;65.10;;;10.50;;
53879;SDS011;39791;53.184;5.486;2023-02-04T05:21:54;57.10;;;9.25;;
53879;SDS011;39791;53.184;5.486;2023-02-04T05:24:21;66.53;;;9.40;;
53879;SDS011;39791;53.184;5.486;2023-02-04T05:26:46;78.65;;;10.77;;
53879;SDS011;39791;53.184;5.486;2023-02-04T05:29:12;63.72;;;9.23;;
53879;SDS011;39791;53.184;5.486;2023-02-04T05:31:38;61.22;;;9.60;;
53879;SDS011;39791;53.184;5.486;2023-02-04T05:34:03;68.75;;;9.95;;
53879;SDS011;39791;53.184;5.486;2023-02-04T05:36:29;61.33;;;9.93;;
53879;SDS011;39791;53.184;5.486;2023-02-04T05:38:54;57.90;;;8.63;;
53879;SDS011;39791;53.184;5.486;2023-02-04T05:41:20;58.35;;;10.25;;
53879;SDS011;39791;53.184;5.486;2023-02-04T05:43:45;70.70;;;10.40;;
53879;SDS011;39791;53.184;5.486;2023-02-04T05:46:11;63.20;;;9.15;;
53879;SDS011;39791;53.184;5.486;2023-02-04T05:48:36;66.32;;;10.00;;
53879;SDS011;39791;53.184;5.486;2023-02-04T05:51:04;63.17;;;9.55;;
53879;SDS011;39791;53.184;5.486;2023-02-04T05:53:29;61.97;;;9.15;;
53879;SDS011;39791;53.184;5.486;2023-02-04T05:55:55;58.20;;;9.30;;
53879;SDS011;39791;53.184;5.486;2023-02-04T05:58:21;66.45;;;9.85;;
53879;SDS011;39791;53.184;5.486;2023-02-04T06:00:46;68.28;;;9.57;;
53879;SDS011;39791;53.184;5.486;2023-02-04T06:03:12;70.80;;;9.57;;
53879;SDS011;39791;53.184;5.486;2023-02-04T06:05:38;58.38;;;9.38;;
53879;SDS011;39791;53.184;5.486;2023-02-04T06:08:04;69.85;;;9.65;;
53879;SDS011;39791;53.184;5.486;2023-02-04T06:10:30;66.93;;;10.13;;
53879;SDS011;39791;53.184;5.486;2023-02-04T06:12:55;60.63;;;9.35;;
53879;SDS011;39791;53.184;5.486;2023-02-04T06:15:21;66.57;;;9.70;;
53879;SDS011;39791;53.184;5.486;2023-02-04T06:17:46;73.07;;;9.00;;
53879;SDS011;39791;53.184;5.486;2023-02-04T06:20:12;52.95;;;8.73;;
53879;SDS011;39791;53.184;5.486;2023-02-04T06:22:39;71.50;;;8.93;;
53879;SDS011;39791;53.184;5.486;2023-02-04T06:25:05;75.90;;;9.30;;
53879;SDS011;39791;53.184;5.486;2023-02-04T06:27:30;66.18;;;9.52;;
53879;SDS011;39791;53.184;5.486;2023-02-04T06:29:56;59.63;;;9.20;;
53879;SDS011;39791;53.184;5.486;2023-02-04T06:32:22;59.92;;;9.23;;
53879;SDS011;39791;53.184;5.486;2023-02-04T06:34:47;57.83;;;8.43;;
53879;SDS011;39791;53.184;5.486;2023-02-04T06:37:13;70.97;;;8.82;;
53879;SDS011;39791;53.184;5.486;2023-02-04T06:39:41;71.88;;;9.90;;
53879;SDS011;39791;53.184;5.486;2023-02-04T06:42:07;56.15;;;7.88;;
53879;SDS011;39791;53.184;5.486;2023-02-04T06:44:32;77.32;;;11.07;;
53879;SDS011;39791;53.184;5.486;2023-02-04T06:46:58;84.40;;;10.52;;
53879;SDS011;39791;53.184;5.486;2023-02-04T06:49:24;63.47;;;9.35;;
53879;SDS011;39791;53.184;5.486;2023-02-04T06:51:49;74.72;;;9.73;;
53879;SDS011;39791;53.184;5.486;2023-02-04T06:54:15;71.30;;;9.27;;
53879;SDS011;39791;53.184;5.486;2023-02-04T06:56:41;73.50;;;10.48;;
53879;SDS011;39791;53.184;5.486;2023-02-04T06:59:08;76.22;;;9.52;;
53879;SDS011;39791;53.184;5.486;2023-02-04T07:01:34;70.75;;;9.43;;
53879;SDS011;39791;53.184;5.486;2023-02-04T07:03:59;68.60;;;9.82;;
53879;SDS011;39791;53.184;5.486;2023-02-04T07:06:25;79.55;;;9.60;;
53879;SDS011;39791;53.184;5.486;2023-02-04T07:08:50;66.45;;;9.70;;
53879;SDS011;39791;53.184;5.486;2023-02-04T07:11:16;54.60;;;9.05;;
53879;SDS011;39791;53.184;5.486;2023-02-04T07:13:41;71.00;;;9.48;;
53879;SDS011;39791;53.184;5.486;2023-02-04T07:16:07;64.68;;;10.23;;
53879;SDS011;39791;53.184;5.486;2023-02-04T07:18:32;58.65;;;9.00;;
53879;SDS011;39791;53.184;5.486;2023-02-04T07:20:58;57.47;;;9.82;;
53879;SDS011;39791;53.184;5.486;2023-02-04T07:23:24;63.95;;;9.15;;
53879;SDS011;39791;53.184;5.486;2023-02-04T07:25:51;63.25;;;9.65;;
53879;SDS011;39791;53.184;5.486;2023-02-04T07:28:18;74.68;;;9.93;;
53879;SDS011;39791;53.184;5.486;2023-02-04T07:30:44;84.90;;;10.38;;
53879;SDS011;39791;53.184;5.486;2023-02-04T07:33:10;101.97;;;10.18;;
53879;SDS011;39791;53.184;5.486;2023-02-04T07:35:36;73.03;;;9.43;;
53879;SDS011;39791;53.184;5.486;2023-02-04T07:38:04;63.80;;;10.38;;
53879;SDS011;39791;53.184;5.486;2023-02-04T07:40:30;75.75;;;9.70;;
53879;SDS011;39791;53.184;5.486;2023-02-04T07:42:56;68.07;;;10.68;;
53879;SDS011;39791;53.184;5.486;2023-02-04T07:45:21;86.78;;;10.93;;
53879;SDS011;39791;53.184;5.486;2023-02-04T07:47:47;84.45;;;11.20;;
53879;SDS011;39791;53.184;5.486;2023-02-04T07:50:13;69.38;;;10.18;;
53879;SDS011;39791;53.184;5.486;2023-02-04T07:52:39;89.18;;;12.73;;
53879;SDS011;39791;53.184;5.486;2023-02-04T07:55:04;94.82;;;12.48;;
53879;SDS011;39791;53.184;5.486;2023-02-04T07:57:30;87.65;;;12.27;;
53879;SDS011;39791;53.184;5.486;2023-02-04T07:59:56;68.80;;;10.57;;
53879;SDS011;39791;53.184;5.486;2023-02-04T08:02:21;78.80;;;10.80;;
53879;SDS011;39791;53.184;5.486;2023-02-04T08:04:47;66.28;;;10.05;;
53879;SDS011;39791;53.184;5.486;2023-02-04T08:07:12;67.95;;;9.82;;
53879;SDS011;39791;53.184;5.486;2023-02-04T08:09:38;55.28;;;9.32;;
53879;SDS011;39791;53.184;5.486;2023-02-04T08:12:04;60.80;;;10.00;;
53879;SDS011;39791;53.184;5.486;2023-02-04T08:14:29;65.60;;;10.02;;
53879;SDS011;39791;53.184;5.486;2023-02-04T08:16:55;62.20;;;12.15;;
53879;SDS011;39791;53.184;5.486;2023-02-04T08:19:20;62.78;;;11.55;;
53879;SDS011;39791;53.184;5.486;2023-02-04T08:21:46;73.60;;;12.20;;
53879;SDS011;39791;53.184;5.486;2023-02-04T08:24:13;57.47;;;9.88;;
53879;SDS011;39791;53.184;5.486;2023-02-04T08:26:40;55.40;;;9.70;;
53879;SDS011;39791;53.184;5.486;2023-02-04T08:29:06;58.33;;;10.68;;
53879;SDS011;39791;53.184;5.486;2023-02-04T08:31:32;49.25;;;9.68;;
53879;SDS011;39791;53.184;5.486;2023-02-04T08:33:58;53.42;;;9.13;;
53879;SDS011;39791;53.184;5.486;2023-02-04T08:36:24;54.47;;;8.60;;
53879;SDS011;39791;53.184;5.486;2023-02-04T08:38:50;62.55;;;9.10;;
53879;SDS011;39791;53.184;5.486;2023-02-04T08:41:15;47.45;;;9.07;;
53879;SDS011;39791;53.184;5.486;2023-02-04T08:43:41;57.78;;;9.20;;
53879;SDS011;39791;53.184;5.486;2023-02-04T08:46:06;47.20;;;8.55;;
53879;SDS011;39791;53.184;5.486;2023-02-04T08:48:32;48.20;;;8.00;;
53879;SDS011;39791;53.184;5.486;2023-02-04T08:50:57;51.20;;;8.70;;
53879;SDS011;39791;53.184;5.486;2023-02-04T08:53:23;42.45;;;7.85;;
53879;SDS011;39791;53.184;5.486;2023-02-04T08:55:49;37.60;;;7.32;;
53879;SDS011;39791;53.184;5.486;2023-02-04T08:58:14;38.78;;;7.07;;
53879;SDS011;39791;53.184;5.486;2023-02-04T09:00:40;38.15;;;6.97;;
53879;SDS011;39791;53.184;5.486;2023-02-04T09:03:06;34.15;;;6.72;;
53879;SDS011;39791;53.184;5.486;2023-02-04T09:05:31;46.95;;;7.05;;
53879;SDS011;39791;53.184;5.486;2023-02-04T09:07:57;33.78;;;7.03;;
53879;SDS011;39791;53.184;5.486;2023-02-04T09:10:23;31.50;;;5.93;;
53879;SDS011;39791;53.184;5.486;2023-02-04T09:12:49;31.42;;;6.63;;
53879;SDS011;39791;53.184;5.486;2023-02-04T09:15:19;30.98;;;5.72;;
53879;SDS011;39791;53.184;5.486;2023-02-04T09:17:47;27.98;;;6.20;;
53879;SDS011;39791;53.184;5.486;2023-02-04T09:20:12;29.38;;;5.88;;
53879;SDS011;39791;53.184;5.486;2023-02-04T09:22:38;24.70;;;5.07;;
53879;SDS011;39791;53.184;5.486;2023-02-04T09:25:04;33.08;;;5.65;;
53879;SDS011;39791;53.184;5.486;2023-02-04T09:27:29;20.63;;;5.00;;
53879;SDS011;39791;53.184;5.486;2023-02-04T09:29:55;20.33;;;4.43;;
53879;SDS011;39791;53.184;5.486;2023-02-04T09:32:20;25.33;;;4.70;;
53879;SDS011;39791;53.184;5.486;2023-02-04T09:34:47;26.55;;;5.22;;
53879;SDS011;39791;53.184;5.486;2023-02-04T09:37:13;24.30;;;4.75;;
53879;SDS011;39791;53.184;5.486;2023-02-04T09:39:38;30.13;;;5.20;;
53879;SDS011;39791;53.184;5.486;2023-02-04T09:42:04;28.95;;;5.40;;
53879;SDS011;39791;53.184;5.486;2023-02-04T09:44:29;26.00;;;5.18;;
53879;SDS011;39791;53.184;5.486;2023-02-04T09:46:55;31.08;;;5.70;;
53879;SDS011;39791;53.184;5.486;2023-02-04T09:49:23;24.65;;;5.20;;
53879;SDS011;39791;53.184;5.486;2023-02-04T09:51:50;29.90;;;5.63;;
53879;SDS011;39791;53.184;5.486;2023-02-04T09:54:17;23.60;;;5.28;;
53879;SDS011;39791;53.184;5.486;2023-02-04T09:56:44;26.42;;;5.00;;
53879;SDS011;39791;53.184;5.486;2023-02-04T09:59:15;26.17;;;4.78;;
53879;SDS011;39791;53.184;5.486;2023-02-04T10:01:54;22.33;;;5.10;;
53879;SDS011;39791;53.184;5.486;2023-02-04T10:04:26;23.73;;;5.95;;
53879;SDS011;39791;53.184;5.486;2023-02-04T10:06:52;27.17;;;4.65;;
53879;SDS011;39791;53.184;5.486;2023-02-04T10:09:22;28.33;;;6.28;;
53879;SDS011;39791;53.184;5.486;2023-02-04T10:11:48;18.20;;;4.47;;
53879;SDS011;39791;53.184;5.486;2023-02-04T10:14:14;22.60;;;5.30;;
53879;SDS011;39791;53.184;5.486;2023-02-04T10:16:44;28.45;;;4.93;;
53879;SDS011;39791;53.184;5.486;2023-02-04T10:19:16;28.60;;;4.70;;
53879;SDS011;39791;53.184;5.486;2023-02-04T10:21:42;22.55;;;4.63;;
53879;SDS011;39791;53.184;5.486;2023-02-04T10:24:11;23.13;;;5.00;;
53879;SDS011;39791;53.184;5.486;2023-02-04T10:26:42;25.23;;;5.10;;
53879;SDS011;39791;53.184;5.486;2023-02-04T10:29:19;27.27;;;6.07;;
53879;SDS011;39791;53.184;5.486;2023-02-04T10:31:48;20.45;;;4.97;;
53879;SDS011;39791;53.184;5.486;2023-02-04T10:34:18;21.95;;;4.65;;
53879;SDS011;39791;53.184;5.486;2023-02-04T10:37:19;26.90;;;5.57;;
53879;SDS011;39791;53.184;5.486;2023-02-04T10:39:46;28.27;;;6.03;;
53879;SDS011;39791;53.184;5.486;2023-02-04T10:42:24;22.35;;;4.88;;
53879;SDS011;39791;53.184;5.486;2023-02-04T10:44:52;25.65;;;5.53;;
53879;SDS011;39791;53.184;5.486;2023-02-04T10:47:21;30.67;;;6.00;;
53879;SDS011;39791;53.184;5.486;2023-02-04T10:49:59;25.15;;;5.35;;
53879;SDS011;39791;53.184;5.486;2023-02-04T10:52:34;23.45;;;5.47;;
53879;SDS011;39791;53.184;5.486;2023-02-04T10:55:06;35.28;;;6.55;;
53879;SDS011;39791;53.184;5.486;2023-02-04T10:57:38;35.85;;;6.35;;
53879;SDS011;39791;53.184;5.486;2023-02-04T11:00:06;26.40;;;5.70;;
53879;SDS011;39791;53.184;5.486;2023-02-04T11:05:25;34.42;;;6.57;;
53879;SDS011;39791;53.184;5.486;2023-02-04T11:07:55;35.63;;;6.60;;
53879;SDS011;39791;53.184;5.486;2023-02-04T11:10:22;32.92;;;6.60;;
53879;SDS011;39791;53.184;5.486;2023-02-04T11:18:04;27.73;;;5.88;;
53879;SDS011;39791;53.184;5.486;2023-02-04T11:20:32;26.77;;;5.57;;
53879;SDS011;39791;53.184;5.486;2023-02-04T11:23:13;30.42;;;6.63;;
53879;SDS011;39791;53.184;5.486;2023-02-04T11:25:40;28.48;;;5.97;;
53879;SDS011;39791;53.184;5.486;2023-02-04T11:28:12;29.17;;;5.72;;
53879;SDS011;39791;53.184;5.486;2023-02-04T11:30:57;26.58;;;5.82;;
53879;SDS011;39791;53.184;5.486;2023-02-04T11:33:24;24.27;;;5.47;;
53879;SDS011;39791;53.184;5.486;2023-02-04T11:36:01;28.33;;;5.50;;
53879;SDS011;39791;53.184;5.486;2023-02-04T11:38:29;29.55;;;5.82;;
53879;SDS011;39791;53.184;5.486;2023-02-04T11:40:56;24.30;;;5.32;;
53879;SDS011;39791;53.184;5.486;2023-02-04T11:43:23;29.88;;;5.90;;
53879;SDS011;39791;53.184;5.486;2023-02-04T11:45:59;23.15;;;5.32;;
53879;SDS011;39791;53.184;5.486;2023-02-04T11:48:39;28.30;;;6.53;;
53879;SDS011;39791;53.184;5.486;2023-02-04T11:51:48;23.02;;;5.10;;
53879;SDS011;39791;53.184;5.486;2023-02-04T11:53:58;22.45;;;5.60;;
53879;SDS011;39791;53.184;5.486;2023-02-04T11:56:26;23.02;;;5.10;;
53879;SDS011;39791;53.184;5.486;2023-02-04T11:58:54;22.63;;;5.00;;
53879;SDS011;39791;53.184;5.486;2023-02-04T12:01:23;21.75;;;5.20;;
53879;SDS011;39791;53.184;5.486;2023-02-04T12:03:58;21.20;;;4.72;;
53879;SDS011;39791;53.184;5.486;2023-02-04T12:06:30;24.67;;;4.85;;
53879;SDS011;39791;53.184;5.486;2023-02-04T12:11:50;29.27;;;4.90;;
53879;SDS011;39791;53.184;5.486;2023-02-04T12:14:20;31.45;;;6.15;;
53879;SDS011;39791;53.184;5.486;2023-02-04T12:16:51;25.17;;;5.53;;
53879;SDS011;39791;53.184;5.486;2023-02-04T12:19:17;27.75;;;5.82;;
53879;SDS011;39791;53.184;5.486;2023-02-04T12:21:43;24.67;;;5.53;;
53879;SDS011;39791;53.184;5.486;2023-02-04T12:24:09;31.63;;;5.97;;
53879;SDS011;39791;53.184;5.486;2023-02-04T12:26:35;32.25;;;6.45;;
53879;SDS011;39791;53.184;5.486;2023-02-04T12:29:01;25.00;;;5.78;;
53879;SDS011;39791;53.184;5.486;2023-02-04T12:31:29;29.58;;;5.05;;
53879;SDS011;39791;53.184;5.486;2023-02-04T12:33:55;26.60;;;5.05;;
53879;SDS011;39791;53.184;5.486;2023-02-04T12:36:21;24.40;;;5.22;;
53879;SDS011;39791;53.184;5.486;2023-02-04T12:38:46;28.00;;;5.35;;
53879;SDS011;39791;53.184;5.486;2023-02-04T12:41:12;24.00;;;5.57;;
53879;SDS011;39791;53.184;5.486;2023-02-04T12:43:37;29.60;;;5.45;;
53879;SDS011;39791;53.184;5.486;2023-02-04T12:46:03;25.80;;;5.15;;
53879;SDS011;39791;53.184;5.486;2023-02-04T12:48:29;30.17;;;5.63;;
53879;SDS011;39791;53.184;5.486;2023-02-04T12:50:55;27.58;;;5.63;;
53879;SDS011;39791;53.184;5.486;2023-02-04T12:53:21;33.17;;;6.13;;
53879;SDS011;39791;53.184;5.486;2023-02-04T12:55:46;25.02;;;5.50;;
53879;SDS011;39791;53.184;5.486;2023-02-04T12:58:12;31.38;;;5.55;;
53879;SDS011;39791;53.184;5.486;2023-02-04T13:00:38;29.25;;;5.75;;
53879;SDS011;39791;53.184;5.486;2023-02-04T13:03:03;32.65;;;6.60;;
53879;SDS011;39791;53.184;5.486;2023-02-04T13:05:29;24.40;;;5.25;;
53879;SDS011;39791;53.184;5.486;2023-02-04T13:07:55;28.30;;;5.00;;
53879;SDS011;39791;53.184;5.486;2023-02-04T13:10:21;32.92;;;5.80;;
53879;SDS011;39791;53.184;5.486;2023-02-04T13:12:48;33.80;;;5.88;;
53879;SDS011;39791;53.184;5.486;2023-02-04T13:15:14;27.77;;;5.93;;
53879;SDS011;39791;53.184;5.486;2023-02-04T13:17:41;34.65;;;5.85;;
53879;SDS011;39791;53.184;5.486;2023-02-04T13:20:07;25.17;;;4.97;;
53879;SDS011;39791;53.184;5.486;2023-02-04T13:22:33;28.65;;;4.70;;
53879;SDS011;39791;53.184;5.486;2023-02-04T13:24:59;28.45;;;5.78;;
53879;SDS011;39791;53.184;5.486;2023-02-04T13:27:24;24.00;;;5.25;;
53879;SDS011;39791;53.184;5.486;2023-02-04T13:29:51;26.90;;;5.40;;
53879;SDS011;39791;53.184;5.486;2023-02-04T13:32:17;40.33;;;6.43;;
53879;SDS011;39791;53.184;5.486;2023-02-04T13:34:43;36.88;;;6.30;;
53879;SDS011;39791;53.184;5.486;2023-02-04T13:37:09;37.75;;;6.45;;
53879;SDS011;39791;53.184;5.486;2023-02-04T13:39:34;29.92;;;6.28;;
53879;SDS011;39791;53.184;5.486;2023-02-04T13:42:00;28.70;;;6.13;;
53879;SDS011;39791;53.184;5.486;2023-02-04T13:44:25;34.65;;;6.43;;
53879;SDS011;39791;53.184;5.486;2023-02-04T13:46:51;35.45;;;6.30;;
53879;SDS011;39791;53.184;5.486;2023-02-04T13:49:17;29.63;;;6.40;;
53879;SDS011;39791;53.184;5.486;2023-02-04T13:51:42;29.35;;;6.43;;
53879;SDS011;39791;53.184;5.486;2023-02-04T13:54:08;27.48;;;6.10;;
53879;SDS011;39791;53.184;5.486;2023-02-04T13:56:34;41.50;;;7.35;;
53879;SDS011;39791;53.184;5.486;2023-02-04T13:59:01;36.25;;;5.78;;
53879;SDS011;39791;53.184;5.486;2023-02-04T14:01:27;33.92;;;6.38;;
53879;SDS011;39791;53.184;5.486;2023-02-04T14:03:52;28.77;;;5.75;;
53879;SDS011;39791;53.184;5.486;2023-02-04T14:06:18;32.53;;;6.50;;
53879;SDS011;39791;53.184;5.486;2023-02-04T14:08:46;28.25;;;5.78;;
53879;SDS011;39791;53.184;5.486;2023-02-04T14:11:12;29.08;;;5.43;;
53879;SDS011;39791;53.184;5.486;2023-02-04T14:13:37;26.70;;;5.50;;
53879;SDS011;39791;53.184;5.486;2023-02-04T14:16:03;43.58;;;7.28;;
53879;SDS011;39791;53.184;5.486;2023-02-04T14:18:30;33.33;;;6.53;;
53879;SDS011;39791;53.184;5.486;2023-02-04T14:20:55;32.97;;;5.82;;
53879;SDS011;39791;53.184;5.486;2023-02-04T14:23:21;30.63;;;5.63;;
53879;SDS011;39791;53.184;5.486;2023-02-04T14:25:47;32.88;;;6.28;;
53879;SDS011;39791;53.184;5.486;2023-02-04T14:28:13;32.60;;;6.35;;
53879;SDS011;39791;53.184;5.486;2023-02-04T14:30:38;31.88;;;5.90;;
53879;SDS011;39791;53.184;5.486;2023-02-04T14:33:04;37.10;;;5.97;;
53879;SDS011;39791;53.184;5.486;2023-02-04T14:35:30;33.50;;;6.35;;
53879;SDS011;39791;53.184;5.486;2023-02-04T14:37:55;33.53;;;5.97;;